createdAt,value
2023-12-21T00:07:07.029Z,8.1
2023-12-21T00:17:07.162Z,8.1
2023-12-21T00:37:07.586Z,8.2
2023-12-21T00:47:07.752Z,8.3
2023-12-21T00:57:10.231Z,8.3
2023-12-21T01:07:08.176Z,8.3
2023-12-21T01:47:08.957Z,8.3
2023-12-21T01:57:09.184Z,8.4
2023-12-21T02:07:09.407Z,8.4
2023-12-21T02:17:09.581Z,8.4
2023-12-21T02:27:09.774Z,8.4
2023-12-21T02:37:10.108Z,8.4
2023-12-21T02:47:10.177Z,8.4
2023-12-21T02:57:10.386Z,8.5
2023-12-21T03:07:10.599Z,8.5
2023-12-21T03:17:10.786Z,8.5
2023-12-21T03:27:11.021Z,8.5
2023-12-21T03:37:11.220Z,8.5
2023-12-21T03:47:11.388Z,8.5
2023-12-21T03:57:11.589Z,8.5
2023-12-21T04:07:11.861Z,8.5
2023-12-21T04:17:12.016Z,8.5
2023-12-21T04:27:12.211Z,8.5
2023-12-21T04:37:12.419Z,8.5
2023-12-21T04:47:21.880Z,8.5
2023-12-21T04:57:12.815Z,8.5
2023-12-21T05:07:13.045Z,8.5
2023-12-21T05:17:13.198Z,8.5
2023-12-21T05:27:13.417Z,8.6
2023-12-21T05:37:13.647Z,8.6
2023-12-21T05:47:13.811Z,8.6
2023-12-21T05:57:14.014Z,8.6
2023-12-21T06:07:14.303Z,8.6
2023-12-21T06:17:14.482Z,8.7
2023-12-21T06:57:15.222Z,8.8
2023-12-21T07:37:16.034Z,8.8
2023-12-21T09:27:18.223Z,9.3
2023-12-21T09:37:18.430Z,9.3
2023-12-21T09:47:18.593Z,9.4
2023-12-21T09:57:18.803Z,9.4
2023-12-21T10:07:19.016Z,9.5
2023-12-21T10:27:19.408Z,9.7
2023-12-21T11:57:21.212Z,10.8
2023-12-21T12:07:21.446Z,10.9
2023-12-21T12:17:21.642Z,10.9
2023-12-21T12:27:21.837Z,11
2023-12-21T13:17:22.826Z,10.7
2023-12-21T13:37:23.255Z,10.8
2023-12-21T13:57:23.632Z,10.8
2023-12-21T14:27:24.275Z,10.3
2023-12-21T15:37:25.632Z,10.2
2023-12-21T15:47:25.824Z,10
2023-12-21T15:57:26.031Z,10
2023-12-21T16:37:26.863Z,8.7
2023-12-21T16:47:27.021Z,7
2023-12-21T17:17:27.698Z,6.5
2023-12-21T17:27:27.858Z,6
2023-12-21T17:37:28.072Z,6.1
2023-12-21T17:47:28.278Z,5.8
2023-12-21T17:57:28.467Z,5.6
2023-12-21T18:07:28.714Z,5.6
2023-12-21T18:17:28.872Z,5.6
2023-12-21T18:37:29.313Z,5.7
2023-12-21T18:47:29.497Z,5.8
2023-12-21T19:07:29.912Z,6.1
2023-12-21T19:17:30.125Z,6.2
2023-12-21T19:27:30.305Z,6.1
2023-12-21T19:57:30.906Z,6.3
2023-12-21T20:07:31.172Z,6.3
2023-12-21T20:17:31.335Z,6.3
2023-12-21T20:27:31.504Z,6.3
2023-12-21T20:37:31.780Z,6.4
2023-12-21T20:47:31.933Z,6.6
2023-12-21T20:57:32.126Z,6.6
2023-12-21T21:17:32.628Z,6.7
2023-12-21T21:27:32.730Z,6.7
2023-12-21T21:37:33.035Z,6.8
2023-12-21T21:47:33.311Z,6.2
2023-12-21T21:57:35.091Z,5.9
2023-12-21T22:07:33.619Z,5.8
2023-12-21T22:17:33.856Z,6
2023-12-21T22:27:33.955Z,6.2
2023-12-21T22:37:34.205Z,6.3
2023-12-21T22:57:34.570Z,6.2
2023-12-21T23:07:34.925Z,6.2
2023-12-21T23:17:35.058Z,6.2
2023-12-21T23:27:35.200Z,6.2
2023-12-21T23:37:35.487Z,6
2023-12-21T23:47:35.646Z,5.9
2023-12-21T23:57:35.837Z,5.9
